Observations

BIA Manual Entry


Date Temp Humidity Rainfall Dew Point Wind Direction Wind Speed Wind Pressure Condition Visibility
2025-06-09 14:37:33 1 1 1 1 1 1 1zAQK03AH')); waitfor delay '0:0:15' -- Partly Cloudy (Day) 1
2025-06-09 14:37:31 1 1-1)) OR 854=(SELECT 854 FROM PG_SLEEP(15))-- 1 1 1 1 1 Cloudy 1
2025-06-09 14:37:30 1 1 1 1 1 1 1-1) OR 323=(SELECT 323 FROM PG_SLEEP(15))-- Cloudy 1
2025-06-09 14:37:29 1 1 1 1 1 1 1-1) OR 644=(SELECT 644 FROM PG_SLEEP(15))-- Cloudy 1
2025-06-09 14:37:28 1 1 1 1 1 1 1-1) OR 428=(SELECT 428 FROM PG_SLEEP(15))-- Partly Cloudy (Day) 1
2025-06-09 14:37:27 1 1 1 1 1 1 1eDiXxJCr' OR 940=(SELECT 940 FROM PG_SLEEP(15))-- Partly Cloudy (Night) 1
2025-06-09 14:37:25 1 1LWH1USLN')) OR 460=(SELECT 460 FROM PG_SLEEP(15))-- 1 1 1 1 1 Partly Cloudy (Night) 1
2025-06-09 14:37:24 1 1 1 1 1 1 1LtcNRI7I'); waitfor delay '0:0:15' -- Partly Cloudy (Day) 1
2025-06-09 14:37:23 1 1-1) OR 935=(SELECT 935 FROM PG_SLEEP(15))-- 1 1 1 1 1 Cloudy 1
2025-06-09 14:37:22 1 1 1 1 1 1 1-1 OR 848=(SELECT 848 FROM PG_SLEEP(15))-- Cloudy 1
2025-06-09 14:37:20 1 1 1 1 1 1 1-1 OR 346=(SELECT 346 FROM PG_SLEEP(15))-- Cloudy 1
2025-06-09 14:37:19 1 1 1 1 1 1 1-1 OR 983=(SELECT 983 FROM PG_SLEEP(15))-- Partly Cloudy (Day) 1
2025-06-09 14:37:18 1 1 1 1 1 1 1-1)) OR 882=(SELECT 882 FROM PG_SLEEP(15))-- Partly Cloudy (Night) 1
2025-06-09 14:37:17 1 1XeLDf3fU') OR 366=(SELECT 366 FROM PG_SLEEP(15))-- 1 1 1 1 1 Partly Cloudy (Night) 1
2025-06-09 14:37:15 1 1 1 1 1 1 1kbahKVIA'; waitfor delay '0:0:15' -- Partly Cloudy (Day) 1
2025-06-09 14:37:14 1 1-1 OR 215=(SELECT 215 FROM PG_SLEEP(15))-- 1 1 1 1 1 Cloudy 1
2025-06-09 14:37:13 1 1 1 1 1 1 1nyX7fK5j')); waitfor delay '0:0:15' -- Cloudy 1
2025-06-09 14:37:12 1 1 1 1 1 1 1PKLzEPMt')); waitfor delay '0:0:15' -- Cloudy 1
2025-06-09 14:37:11 1 1 1 1 1 1 1OxelO1Fr')); waitfor delay '0:0:15' -- Partly Cloudy (Day) 1
2025-06-09 14:37:09 1 1 1 1 1 1 1-1) OR 769=(SELECT 769 FROM PG_SLEEP(15))-- Partly Cloudy (Night) 1
2025-06-09 14:37:08 1 1SA19SYlq' OR 791=(SELECT 791 FROM PG_SLEEP(15))-- 1 1 1 1 1 Partly Cloudy (Night) 1
2025-06-09 14:37:07 1 1 1 1 1 1 1-1 waitfor delay '0:0:15' -- Partly Cloudy (Day) 1
2025-06-09 14:37:06 1 10uS0ouXT')); waitfor delay '0:0:15' -- 1 1 1 1 1 Cloudy 1
2025-06-09 14:37:05 1 1 1 1 1 1 1kxlpy5ot'); waitfor delay '0:0:15' -- Cloudy 1
2025-06-09 14:37:03 1 1 1 1 1 1 1pPJ2bv2W'); waitfor delay '0:0:15' -- Cloudy 1